Tangier, Indiana
Current Conditions -  °F | °C
As of 9:55 PM on Monday 22 Dec 2014 (Local Time) from KDNV Reporting Station
Light Rain Light Rain  
Wind Chill: 38°   Ceiling: 900
Heat Index: 43°   Visibility: 4mi
Dew Point: 43°   Wind: 10mph
Humidity: 98%   Direction: 120°ESE
Pressure: 29.59"   Gusts: NA
Location:  39.9707°N, 87.3162°W
Report Text: KDNV 230255Z AUTO 12009KT 4SM -RA OVC009 06/06 A2959 RMK AO2 P0009 60019 T00630060
Loading
Personal Weather Stations






























Interactive Weather Map New forecast layout! Learn more

10-Day Weather Forecast

Advertisements
Track Severe Weather on mobile